Time;durP1;ratioP1;P1;durP2;ratioP2;P2;SDS_P1;SDS_P2;PMS_P1;PMS_P2;Temp;Humidity;BMP_temperature;BMP_pressure;BME280_temperature;BME280_humidity;BME280_pressure;Samples;Min_cycle;Max_cycle;Signal;HPM_P1;HPM_P2
2021/07/04 00:00:30;;;;;;;369.80;354.87;;;17.10;99.90;;;;;;4994406;28;20471;-84
2021/07/04 00:02:58;;;;;;;377.03;360.77;;;17.10;99.90;;;;;;4994638;28;20463;-84
2021/07/04 00:05:35;;;;;;;381.33;365.03;;;17.10;99.90;;;;;;4994461;28;20481;-84
2021/07/04 00:08:06;;;;;;;381.77;366.23;;;17.20;99.90;;;;;;4994414;28;20466;-85
2021/07/04 00:10:41;;;;;;;374.97;359.53;;;17.10;99.90;;;;;;4993099;28;20541;-84
2021/07/04 00:13:33;;;;;;;366.20;350.87;;;17.10;99.90;;;;;;4994396;28;20965;-85
2021/07/04 00:16:16;;;;;;;346.00;330.33;;;17.20;99.90;;;;;;4978641;28;20819;-85
2021/07/04 00:18:48;;;;;;;341.13;326.67;;;17.20;99.90;;;;;;4994296;28;20521;-85
2021/07/04 00:21:16;;;;;;;361.60;346.20;;;17.20;99.90;;;;;;4994316;28;20463;-84
2021/07/04 00:23:45;;;;;;;371.40;356.00;;;17.20;99.90;;;;;;4994388;28;20541;-84
2021/07/04 00:26:13;;;;;;;354.17;339.07;;;17.20;99.90;;;;;;4992726;28;20957;-85
2021/07/04 00:28:44;;;;;;;343.70;329.90;;;17.20;99.90;;;;;;4994035;28;20908;-84
2021/07/04 00:31:14;;;;;;;345.07;330.13;;;17.10;99.90;;;;;;4994131;28;20506;-85
2021/07/04 00:33:51;;;;;;;;;;;;;;;;;;;;;
2021/07/04 00:36:19;;;;;;;341.50;327.43;;;17.00;99.90;;;;;;4992908;28;20553;-84
2021/07/04 00:38:46;;;;;;;339.43;324.43;;;16.90;99.90;;;;;;4993836;28;20465;-85
2021/07/04 00:41:15;;;;;;;350.07;334.37;;;16.90;99.90;;;;;;4992318;28;20451;-84
2021/07/04 00:44:06;;;;;;;;;;;;;;;;;;;;;
2021/07/04 00:46:44;;;;;;;386.23;368.43;;;16.90;99.90;;;;;;4990152;28;20494;-84
2021/07/04 00:49:35;;;;;;;376.27;359.70;;;16.80;99.90;;;;;;4993833;28;20461;-85
2021/07/04 00:52:24;;;;;;;367.63;350.63;;;17.00;99.90;;;;;;4993453;28;20637;-84
2021/07/04 00:55:05;;;;;;;356.13;339.63;;;17.00;99.90;;;;;;4990170;28;20485;-84
2021/07/04 00:57:42;;;;;;;360.77;344.97;;;17.00;99.90;;;;;;4993710;28;20454;-84
2021/07/04 01:00:14;;;;;;;357.47;341.47;;;17.00;99.90;;;;;;4993812;28;20478;-84
2021/07/04 01:02:41;;;;;;;366.83;350.83;;;17.00;99.90;;;;;;4993642;28;20553;-84
2021/07/04 01:05:18;;;;;;;368.00;351.57;;;17.00;99.90;;;;;;4993521;28;20493;-85
2021/07/04 01:08:04;;;;;;;;;;;;;;;;;;;;;
2021/07/04 01:10:35;;;;;;;359.93;343.80;;;17.00;99.90;;;;;;4988640;28;20992;-83
2021/07/04 01:13:06;;;;;;;368.93;352.73;;;16.90;99.90;;;;;;4993635;28;20530;-84
2021/07/04 01:15:35;;;;;;;359.40;343.57;;;16.90;99.90;;;;;;4975183;28;20490;-84
2021/07/04 01:18:06;;;;;;;323.63;309.23;;;16.90;99.90;;;;;;4993516;28;20541;-84
2021/07/04 01:20:36;;;;;;;316.67;301.83;;;16.80;99.90;;;;;;4993234;28;20972;-84
2021/07/04 01:23:10;;;;;;;317.33;303.70;;;16.70;99.90;;;;;;4993462;28;20561;-84
2021/07/04 01:25:59;;;;;;;340.07;324.83;;;16.60;99.90;;;;;;4992176;28;20493;-84
2021/07/04 01:28:28;;;;;;;324.63;309.67;;;16.70;99.90;;;;;;4993408;28;20455;-84
2021/07/04 01:31:02;;;;;;;363.80;346.93;;;16.50;99.90;;;;;;4993148;28;20458;-85
2021/07/04 01:33:33;;;;;;;368.23;351.17;;;16.60;99.90;;;;;;4975101;28;20513;-85
2021/07/04 01:36:05;;;;;;;354.03;336.67;;;16.80;99.90;;;;;;4993269;28;20545;-84
2021/07/04 01:38:48;;;;;;;359.97;343.27;;;16.90;99.90;;;;;;4993313;28;20545;-85
2021/07/04 01:41:18;;;;;;;387.03;368.63;;;16.90;99.90;;;;;;4985785;28;20508;-84
2021/07/04 01:43:59;;;;;;;376.37;358.90;;;17.00;99.90;;;;;;4993295;28;20459;-85
2021/07/04 01:46:33;;;;;;;358.30;341.70;;;17.10;99.90;;;;;;4993276;28;20450;-84
2021/07/04 01:49:17;;;;;;;;;;;;;;;;;;;;;
2021/07/04 01:52:04;;;;;;;337.73;321.83;;;17.10;99.90;;;;;;4990059;28;20470;-84
2021/07/04 01:54:33;;;;;;;334.70;318.93;;;17.10;99.90;;;;;;4996997;28;20553;-85
2021/07/04 01:57:12;;;;;;;338.37;322.37;;;17.00;99.90;;;;;;4995711;28;20462;-85
2021/07/04 02:00:13;;;;;;;345.63;329.97;;;17.00;99.90;;;;;;4996856;28;20836;-85
2021/07/04 02:03:03;;;;;;;355.03;338.90;;;17.00;99.90;;;;;;4917642;29;20461;-85
2021/07/04 02:05:35;;;;;;;342.77;327.07;;;17.00;99.90;;;;;;4975187;28;20465;-82
2021/07/04 02:08:11;;;;;;;343.07;326.13;;;17.00;99.90;;;;;;4996803;28;20500;-83
2021/07/04 02:10:43;;;;;;;363.90;346.63;;;17.00;99.90;;;;;;4962739;28;20878;-83
2021/07/04 02:13:32;;;;;;;349.03;331.07;;;17.00;99.90;;;;;;4996837;28;20508;-83
2021/07/04 02:16:04;;;;;;;335.10;319.17;;;17.00;99.90;;;;;;4996468;28;20493;-83
2021/07/04 02:18:50;;;;;;;305.63;290.60;;;16.90;99.90;;;;;;4996753;28;20557;-83
2021/07/04 02:21:34;;;;;;;;;;;;;;;;;;;;;
2021/07/04 02:24:08;;;;;;;334.57;318.43;;;16.90;99.90;;;;;;4996363;28;20461;-83
2021/07/04 02:26:54;;;;;;;327.53;312.50;;;17.00;99.90;;;;;;4995219;28;20450;-82
2021/07/04 02:29:24;;;;;;;338.33;322.53;;;17.00;99.90;;;;;;4996165;28;20954;-82
2021/07/04 02:32:07;;;;;;;328.07;312.47;;;17.00;99.90;;;;;;4996502;28;20538;-82
2021/07/04 02:34:40;;;;;;;314.97;299.80;;;17.00;99.90;;;;;;4996249;28;20478;-83
2021/07/04 02:37:24;;;;;;;304.83;289.93;;;17.00;99.90;;;;;;4996153;28;20561;-82
2021/07/04 02:40:06;;;;;;;;;;;;;;;;;;;;;
2021/07/04 02:42:38;;;;;;;277.07;263.67;;;17.00;99.90;;;;;;4996153;28;20458;-85
2021/07/04 02:45:14;;;;;;;291.10;277.03;;;17.00;99.90;;;;;;4995977;28;20455;-83
2021/07/04 02:48:10;;;;;;;;;;;;;;;;;;;;;
2021/07/04 02:50:43;;;;;;;290.80;276.67;;;16.90;99.90;;;;;;4995758;28;20453;-84
2021/07/04 02:53:20;;;;;;;275.77;262.43;;;16.90;99.90;;;;;;4995611;28;20573;-83
2021/07/04 02:55:53;;;;;;;283.03;268.97;;;16.90;99.90;;;;;;4994612;28;20496;-83
2021/07/04 02:58:37;;;;;;;271.63;258.43;;;16.80;99.90;;;;;;4995758;28;20851;-82
2021/07/04 03:01:25;;;;;;;275.20;261.57;;;16.80;99.90;;;;;;4954326;28;20459;-83
2021/07/04 03:04:05;;;;;;;285.93;271.37;;;16.80;99.90;;;;;;4954676;28;20559;-83
2021/07/04 03:06:54;;;;;;;;;;;;;;;;;;;;;
2021/07/04 03:09:34;;;;;;;250.93;238.13;;;16.90;99.90;;;;;;4954401;28;20476;-84
2021/07/04 03:12:43;;;;;;;;;;;;;;;;;;;;;
2021/07/04 03:15:44;;;;;;;297.73;282.13;;;17.00;99.90;;;;;;4954582;28;20491;-83
2021/07/04 03:18:48;;;;;;;272.47;259.63;;;17.00;99.90;;;;;;4916787;28;20456;-83
2021/07/04 03:24:33;;;;;;;;;;;;;;;;;;;;;
2021/07/04 03:27:16;;;;;;;313.80;298.13;;;17.00;99.90;;;;;;4905225;29;20452;-83
2021/07/04 03:30:10;;;;;;;;;;;;;;;;;;;;;
2021/07/04 03:32:47;;;;;;;328.83;312.63;;;17.10;99.90;;;;;;4991542;28;20874;-83
2021/07/04 03:36:00;;;;;;;;;;;;;;;;;;;;;
2021/07/04 03:38:57;;;;;;;328.67;313.10;;;17.00;99.90;;;;;;4994819;28;21028;-83
2021/07/04 03:41:43;;;;;;;341.20;325.93;;;17.10;99.90;;;;;;4968252;28;20450;-83
2021/07/04 03:44:50;;;;;;;;;;;;;;;;;;;;;
2021/07/04 03:50:39;;;;;;;341.47;323.97;;;17.20;99.90;;;;;;4968408;28;20565;-83
2021/07/04 03:53:27;;;;;;;;;;;;;;;;;;;;;
2021/07/04 03:56:31;;;;;;;;;;;;;;;;;;;;;
2021/07/04 03:59:34;;;;;;;;;;;;;;;;;;;;;
2021/07/04 04:02:35;;;;;;;284.97;270.57;;;17.20;99.90;;;;;;4891972;29;20461;-83
2021/07/04 04:05:04;;;;;;;311.60;297.00;;;17.10;99.90;;;;;;4994588;28;20458;-83
2021/07/04 04:07:49;;;;;;;;;;;;;;;;;;;;;
2021/07/04 04:10:20;;;;;;;312.13;296.60;;;17.30;99.90;;;;;;4987537;28;20446;-82
2021/07/04 04:12:49;;;;;;;312.30;297.93;;;17.30;99.90;;;;;;4994321;28;20947;-82
2021/07/04 04:15:20;;;;;;;342.83;327.63;;;17.40;99.90;;;;;;4993559;28;20542;-82
2021/07/04 04:17:47;;;;;;;352.90;337.50;;;17.40;99.90;;;;;;4994156;28;20517;-83
2021/07/04 04:20:14;;;;;;;357.93;341.73;;;17.60;99.90;;;;;;4993926;28;20541;-82
2021/07/04 04:22:41;;;;;;;312.23;297.70;;;17.50;99.90;;;;;;4994073;28;20851;-82
2021/07/04 04:25:09;;;;;;;297.47;284.27;;;17.60;99.90;;;;;;4993202;28;20487;-81
2021/07/04 04:27:36;;;;;;;305.67;291.97;;;17.60;99.90;;;;;;4994164;28;20560;-82
2021/07/04 04:30:05;;;;;;;301.50;287.93;;;17.60;99.90;;;;;;4994028;28;20938;-81
2021/07/04 04:32:34;;;;;;;316.43;301.83;;;17.60;99.90;;;;;;4994162;28;20465;-83
2021/07/04 04:35:05;;;;;;;332.00;317.60;;;17.70;99.90;;;;;;4993985;28;20457;-84
2021/07/04 04:38:09;;;;;;;325.40;310.50;;;17.70;99.90;;;;;;4994066;28;20891;-84
2021/07/04 04:40:38;;;;;;;331.87;317.40;;;17.70;99.90;;;;;;4992788;28;20537;-82
2021/07/04 04:43:05;;;;;;;294.07;279.53;;;17.70;99.90;;;;;;4993541;28;20946;-82
2021/07/04 04:45:34;;;;;;;270.97;257.93;;;17.80;99.90;;;;;;4993633;28;20473;-82
2021/07/04 04:48:04;;;;;;;288.83;275.50;;;17.70;99.90;;;;;;4993896;28;20816;-82
2021/07/04 04:50:31;;;;;;;266.23;254.13;;;17.60;99.90;;;;;;4993765;28;20481;-82
2021/07/04 04:52:58;;;;;;;285.57;271.50;;;17.60;99.90;;;;;;4993556;28;21069;-82
2021/07/04 04:55:25;;;;;;;276.57;263.80;;;17.50;99.90;;;;;;4992343;28;20485;-82
2021/07/04 05:01:35;;;;;;;261.77;248.97;;;17.50;99.90;;;;;;4950463;28;20474;-84
2021/07/04 05:04:03;;;;;;;264.27;251.87;;;17.30;99.90;;;;;;4993602;28;20545;-78
2021/07/04 05:06:30;;;;;;;279.13;265.93;;;17.30;99.90;;;;;;4993696;28;20549;-80
2021/07/04 05:08:57;;;;;;;285.27;272.07;;;17.30;99.90;;;;;;4993510;28;20458;-80
2021/07/04 05:11:23;;;;;;;273.20;261.17;;;17.30;99.90;;;;;;4992411;28;20454;-80
2021/07/04 05:13:50;;;;;;;298.23;285.20;;;17.40;99.90;;;;;;4993743;28;20454;-80
2021/07/04 05:16:19;;;;;;;302.60;289.53;;;17.50;99.90;;;;;;4993448;28;20576;-81
2021/07/04 05:18:46;;;;;;;270.70;257.70;;;17.60;99.90;;;;;;4994053;28;20800;-81
2021/07/04 05:21:14;;;;;;;234.47;222.67;;;17.80;99.90;;;;;;4993506;28;20909;-81
2021/07/04 05:23:41;;;;;;;189.77;179.67;;;17.80;99.90;;;;;;4993514;28;20498;-81
2021/07/04 05:26:08;;;;;;;223.07;211.93;;;17.80;99.90;;;;;;4994483;28;20469;-81
2021/07/04 05:28:35;;;;;;;171.90;161.50;;;18.10;99.90;;;;;;4998436;28;20512;-81
2021/07/04 05:31:01;;;;;;;53.20;44.90;;;18.60;99.90;;;;;;4998352;28;20533;-82
2021/07/04 05:33:31;;;;;;;50.57;29.13;;;18.80;96.20;;;;;;4997880;28;20524;-81
2021/07/04 05:35:58;;;;;;;45.67;21.00;;;19.20;93.40;;;;;;4997609;28;20508;-82
2021/07/04 05:38:32;;;;;;;45.97;17.33;;;19.70;93.00;;;;;;4997543;28;20550;-82
2021/07/04 05:40:59;;;;;;;45.90;15.63;;;19.90;83.30;;;;;;4996276;28;20481;-82
2021/07/04 05:43:26;;;;;;;48.77;14.20;;;20.30;79.70;;;;;;4997047;28;20478;-81
2021/07/04 05:45:54;;;;;;;47.90;13.73;;;20.70;72.40;;;;;;4997482;28;20454;-82
2021/07/04 05:48:25;;;;;;;46.97;13.77;;;21.10;71.10;;;;;;4996944;28;20458;-84
2021/07/04 05:50:52;;;;;;;48.93;12.17;;;21.40;68.30;;;;;;4996985;28;20553;-82
2021/07/04 05:53:19;;;;;;;47.20;12.20;;;21.80;63.50;;;;;;4997109;28;20564;-79
2021/07/04 05:55:47;;;;;;;45.90;12.43;;;22.00;60.60;;;;;;4995851;28;20533;-79
2021/07/04 05:58:14;;;;;;;45.60;11.60;;;22.50;59.60;;;;;;4996766;28;20489;-79
2021/07/04 06:00:41;;;;;;;45.53;11.70;;;22.60;55.90;;;;;;4996440;28;20446;-79
2021/07/04 06:03:08;;;;;;;43.90;10.33;;;22.70;55.40;;;;;;4996771;28;21009;-81
2021/07/04 06:05:35;;;;;;;47.33;11.13;;;22.70;51.80;;;;;;4996843;28;20557;-79
2021/07/04 06:08:04;;;;;;;42.97;9.40;;;22.50;49.10;;;;;;4996755;28;20545;-80
2021/07/04 06:10:31;;;;;;;45.07;9.37;;;22.40;49.10;;;;;;4995329;28;20489;-84
2021/07/04 06:13:24;;;;;;;41.30;8.77;;;22.10;49.70;;;;;;4996814;28;20462;-83
2021/07/04 06:16:07;;;;;;;;;;;;;;;;;;;;;
2021/07/04 06:18:36;;;;;;;40.97;8.37;;;22.50;49.10;;;;;;4995896;28;20450;-81
2021/07/04 06:21:07;;;;;;;44.93;8.13;;;22.60;46.80;;;;;;4996095;28;20509;-82
2021/07/04 06:23:34;;;;;;;42.30;8.40;;;23.20;45.70;;;;;;4996579;28;20517;-81
2021/07/04 06:26:16;;;;;;;48.40;8.63;;;23.30;41.80;;;;;;4995536;28;20450;-85
2021/07/04 06:51:54;;;;;;;41.93;9.97;;;22.60;40.60;;;;;;4759711;30;20503;-78
2021/07/04 06:54:24;;;;;;;39.63;9.23;;;22.60;40.40;;;;;;4957385;28;20525;-78
2021/07/04 06:56:51;;;;;;;43.97;9.20;;;22.80;42.60;;;;;;4975217;28;20495;-79
2021/07/04 07:00:18;;;;;;;;;;;;;;;;;;;;;
2021/07/04 07:03:04;;;;;;;43.90;8.90;;;22.80;40.90;;;;;;4866255;29;20450;-81
2021/07/04 07:05:58;;;;;;;39.37;8.77;;;22.80;40.30;;;;;;4965047;28;20455;-84
2021/07/04 07:08:40;;;;;;;39.20;10.23;;;22.70;42.70;;;;;;4991686;28;20540;-83
2021/07/04 07:11:07;;;;;;;43.33;9.27;;;22.60;41.20;;;;;;5013891;28;20460;-80
2021/07/04 07:13:34;;;;;;;38.40;9.13;;;22.30;41.80;;;;;;5015074;28;20942;-79
2021/07/04 07:43:17;;;;;;;37.10;6.90;;;21.90;44.40;;;;;;4842463;29;21071;-81
2021/07/04 07:45:46;;;;;;;38.13;7.37;;;22.20;45.20;;;;;;4914287;29;20523;-79
2021/07/04 07:48:13;;;;;;;39.13;7.37;;;22.80;44.00;;;;;;4918696;28;21025;-78
2021/07/04 07:50:40;;;;;;;42.67;7.60;;;22.70;40.30;;;;;;5006066;28;20544;-81
2021/07/04 07:53:07;;;;;;;41.93;7.03;;;22.70;39.30;;;;;;4974073;28;20486;-77
2021/07/04 07:55:34;;;;;;;39.40;6.90;;;22.80;39.60;;;;;;4992267;28;20463;-77
2021/07/04 08:07:48;;;;;;;39.60;6.83;;;23.40;35.40;;;;;;4799897;29;20467;-80
2021/07/04 08:10:16;;;;;;;40.73;7.33;;;23.50;34.40;;;;;;4890425;29;20543;-81
2021/07/04 08:12:43;;;;;;;41.00;7.27;;;23.80;31.10;;;;;;4982543;28;20479;-80
2021/07/04 08:15:11;;;;;;;44.57;7.67;;;24.20;31.70;;;;;;4994455;28;20458;-75
2021/07/04 08:17:38;;;;;;;43.60;7.67;;;24.40;29.00;;;;;;4994247;28;21023;-76
2021/07/04 08:20:06;;;;;;;44.83;9.20;;;24.80;30.00;;;;;;4994237;28;20482;-78
2021/07/04 08:22:33;;;;;;;45.60;7.67;;;24.70;28.80;;;;;;4994255;28;20501;-78
2021/07/04 08:25:01;;;;;;;47.20;9.33;;;24.70;27.70;;;;;;4994227;28;20957;-77
2021/07/04 08:27:28;;;;;;;46.30;10.00;;;24.50;29.00;;;;;;4992859;28;20541;-77
2021/07/04 08:29:55;;;;;;;51.70;10.53;;;25.10;29.40;;;;;;4994095;28;20549;-77
2021/07/04 08:32:22;;;;;;;48.43;10.20;;;25.20;25.80;;;;;;4993958;28;20541;-77
2021/07/04 08:34:49;;;;;;;50.77;10.97;;;25.50;26.30;;;;;;4993975;28;20877;-77
2021/07/04 08:37:16;;;;;;;54.80;15.70;;;26.40;26.00;;;;;;4993983;28;20506;-76
2021/07/04 08:39:43;;;;;;;57.23;26.10;;;26.70;24.20;;;;;;4993672;28;20515;-79
2021/07/04 08:42:11;;;;;;;57.77;24.80;;;27.30;20.70;;;;;;4992735;28;20545;-78
2021/07/04 08:44:45;;;;;;;59.03;20.73;;;27.30;17.00;;;;;;4993832;28;20505;-80
2021/07/04 08:47:12;;;;;;;56.60;13.50;;;27.60;18.40;;;;;;4993865;28;20560;-77
2021/07/04 08:49:39;;;;;;;58.73;15.27;;;27.60;17.20;;;;;;4993872;28;21128;-77
2021/07/04 08:52:06;;;;;;;59.00;19.07;;;27.50;17.20;;;;;;4993772;28;20524;-77
2021/07/04 08:54:33;;;;;;;61.40;30.83;;;27.40;17.20;;;;;;4993767;28;20457;-76
2021/07/04 08:57:00;;;;;;;61.67;32.07;;;27.50;17.20;;;;;;4992487;28;20573;-77
2021/07/04 08:59:28;;;;;;;63.87;33.70;;;27.80;18.60;;;;;;4993671;28;20454;-78
2021/07/04 09:01:55;;;;;;;62.27;25.23;;;28.20;18.10;;;;;;4993499;28;20461;-77
2021/07/04 09:04:25;;;;;;;59.77;27.70;;;29.00;13.40;;;;;;4994179;28;20469;-77
2021/07/04 09:06:53;;;;;;;70.07;11.80;;;29.90;10.70;;;;;;4993809;28;20525;-77
2021/07/04 09:09:24;;;;;;;56.07;15.57;;;29.60;10.00;;;;;;4993251;28;20450;-78
2021/07/04 09:11:54;;;;;;;55.17;8.33;;;29.60;7.70;;;;;;4972873;28;20443;-76
2021/07/04 09:14:32;;;;;;;53.27;11.90;;;29.30;7.10;;;;;;4974051;28;20436;-77
2021/07/04 09:17:00;;;;;;;53.77;11.73;;;28.40;9.10;;;;;;4974071;28;20490;-76
2021/07/04 09:19:28;;;;;;;52.93;9.53;;;28.70;10.10;;;;;;4974085;28;20472;-76
2021/07/04 09:22:03;;;;;;;52.50;10.37;;;29.40;9.20;;;;;;4974047;28;20477;-77
2021/07/04 09:24:31;;;;;;;49.30;6.90;;;28.90;4.70;;;;;;4973856;28;20541;-78
2021/07/04 09:26:58;;;;;;;50.00;8.53;;;28.70;6.20;;;;;;4972860;28;20591;-78
2021/07/04 09:29:50;;;;;;;50.63;9.93;;;28.90;5.90;;;;;;4974266;28;20466;-79
2021/07/04 09:32:20;;;;;;;53.30;9.17;;;29.60;1.00;;;;;;4973878;28;20430;-78
2021/07/04 09:35:01;;;;;;;52.83;11.07;;;30.20;1.00;;;;;;4973934;28;20443;-77
2021/07/04 09:37:34;;;;;;;53.20;14.03;;;30.40;1.00;;;;;;4973882;28;20581;-77
2021/07/04 09:40:20;;;;;;;53.47;12.13;;;29.70;1.00;;;;;;4973858;28;20961;-79
2021/07/04 09:42:58;;;;;;;55.73;15.70;;;29.30;2.70;;;;;;4973887;28;20488;-77
2021/07/04 09:45:28;;;;;;;50.07;9.70;;;29.80;1.00;;;;;;4973520;28;20465;-78
2021/07/04 09:47:57;;;;;;;52.77;10.23;;;30.20;1.00;;;;;;4973822;28;20542;-77
2021/07/04 09:50:24;;;;;;;55.97;14.63;;;30.90;1.00;;;;;;4973805;28;20939;-81
2021/07/04 09:52:59;;;;;;;55.53;17.50;;;31.20;1.00;;;;;;4973599;28;20862;-78
2021/07/04 09:55:27;;;;;;;61.77;21.07;;;31.00;1.00;;;;;;4972438;28;20491;-77
2021/07/04 10:01:57;;;;;;;56.43;18.47;;;30.20;1.00;;;;;;4874166;29;20604;-84
2021/07/04 10:04:31;;;;;;;54.20;10.20;;;30.70;1.00;;;;;;4939891;28;20463;-81
2021/07/04 10:07:00;;;;;;;74.10;19.80;;;30.40;1.00;;;;;;4973515;28;20465;-77
2021/07/04 10:09:29;;;;;;;59.00;17.40;;;29.50;1.00;;;;;;4972555;28;20460;-77
2021/07/04 10:11:56;;;;;;;58.93;13.80;;;28.70;1.00;;;;;;4972382;28;20499;-80
2021/07/04 10:14:23;;;;;;;55.50;10.20;;;28.50;3.70;;;;;;4976627;28;20491;-79
2021/07/04 10:16:52;;;;;;;52.57;9.00;;;27.80;5.20;;;;;;4976936;28;20489;-80
2021/07/04 10:19:20;;;;;;;52.07;8.57;;;27.50;5.80;;;;;;4977106;28;20459;-80
2021/07/04 10:21:51;;;;;;;51.10;10.40;;;26.90;12.50;;;;;;4976969;28;20497;-81
2021/07/04 10:24:18;;;;;;;54.27;10.17;;;26.30;16.30;;;;;;4976988;28;20467;-79
2021/07/04 10:26:45;;;;;;;53.37;9.77;;;26.00;19.40;;;;;;4975665;28;20466;-77
2021/07/04 10:29:13;;;;;;;48.50;7.60;;;26.20;21.50;;;;;;4976879;28;20817;-78
2021/07/04 10:31:40;;;;;;;48.03;11.60;;;26.30;18.30;;;;;;4976926;28;20455;-79
2021/07/04 10:34:09;;;;;;;48.80;8.50;;;26.90;21.20;;;;;;4976992;28;20459;-79
2021/07/04 10:37:06;;;;;;;49.90;8.47;;;27.60;11.80;;;;;;4976528;28;20951;-82
2021/07/04 10:39:35;;;;;;;50.37;10.17;;;28.70;9.00;;;;;;4976812;28;20506;-82
2021/07/04 10:42:06;;;;;;;52.20;12.97;;;29.20;4.20;;;;;;4975522;28;20954;-83
2021/07/04 10:44:38;;;;;;;52.30;12.97;;;30.00;1.90;;;;;;4976934;28;20459;-83
2021/07/04 10:47:10;;;;;;;57.67;23.20;;;30.90;1.00;;;;;;4976642;28;20473;-81
2021/07/04 10:49:42;;;;;;;57.37;17.47;;;31.30;1.00;;;;;;4976583;28;20487;-78
2021/07/04 10:52:18;;;;;;;52.90;11.80;;;30.80;1.00;;;;;;4976357;28;20486;-79
2021/07/04 10:54:51;;;;;;;54.37;17.67;;;31.30;1.00;;;;;;4976450;28;20675;-79
2021/07/04 10:57:21;;;;;;;60.30;28.33;;;31.40;1.00;;;;;;4975165;28;20485;-83
2021/07/04 11:00:27;;;;;;;59.63;30.50;;;30.80;1.00;;;;;;4976487;28;20549;-79
2021/07/04 11:02:56;;;;;;;59.43;28.93;;;31.00;1.00;;;;;;4975270;28;20677;-80
2021/07/04 11:05:50;;;;;;;55.10;21.10;;;30.50;1.00;;;;;;4976353;28;20530;-78
2021/07/04 12:32:25;;;;;;;42.60;22.10;;;21.50;68.00;;;;;;4893298;29;20446;-84
2021/07/04 12:34:53;;;;;;;46.20;31.17;;;20.90;69.10;;;;;;4954085;28;20456;-82
2021/07/04 12:37:31;;;;;;;36.73;18.30;;;18.70;99.90;;;;;;4954970;28;21215;-83
2021/07/04 12:40:12;;;;;;;68.77;62.40;;;17.90;99.90;;;;;;4955151;28;20887;-82
2021/07/04 12:42:40;;;;;;;49.93;44.93;;;17.50;99.90;;;;;;4937177;29;20540;-81
2021/07/04 12:45:15;;;;;;;71.87;65.77;;;17.10;99.90;;;;;;4955250;28;20461;-83
2021/07/04 12:48:32;;;;;;;;;;;;;;;;;;;;;
2021/07/04 15:44:42;;;;;;;68.67;64.00;;;17.50;99.90;;;;;;5907065;24;20424;-83
2021/07/04 15:47:32;;;;;;;65.30;61.00;;;17.60;99.90;;;;;;6053620;23;20434;-85
2021/07/04 15:50:25;;;;;;;65.73;61.27;;;17.80;99.90;;;;;;6133769;23;20446;-83
2021/07/04 15:56:22;;;;;;;;;;;;;;;;;;;;;
2021/07/04 16:02:44;;;;;;;40.80;37.30;;;18.10;99.90;;;;;;6063004;23;20413;-83
2021/07/04 16:14:47;;;;;;;45.73;41.87;;;17.80;99.90;;;;;;5868053;24;20417;-79
2021/07/04 16:17:18;;;;;;;45.67;41.83;;;17.80;99.90;;;;;;5990694;23;20740;-80
2021/07/04 16:26:41;;;;;;;32.77;29.60;;;17.60;99.90;;;;;;5924453;24;20621;-85
2021/07/04 20:07:39;;;;;;;144.37;137.47;;;14.80;99.90;;;;;;6268334;22;20944;-87
2021/07/04 21:40:28;;;;;;;;;;;;;;;;;;;;;
2021/07/04 21:57:44;;;;;;;;;;;;;;;;;;;;;
2021/07/04 22:03:50;;;;;;;146.07;138.30;;;13.40;99.90;;;;;;6073797;23;20831;-85
2021/07/04 22:06:40;;;;;;;;;;;;;;;;;;;;;
2021/07/04 22:15:52;;;;;;;159.10;150.77;;;13.10;99.90;;;;;;6219273;23;20901;-85
2021/07/04 22:18:42;;;;;;;157.90;148.70;;;13.00;99.90;;;;;;6105259;23;20411;-85
2021/07/04 22:22:13;;;;;;;;;;;;;;;;;;;;;
2021/07/04 22:25:24;;;;;;;152.37;144.00;;;13.10;99.90;;;;;;6244361;23;20420;-85
2021/07/04 22:31:13;;;;;;;;;;;;;;;;;;;;;
2021/07/04 22:33:51;;;;;;;154.73;145.30;;;12.90;99.90;;;;;;6257970;23;20395;-85
2021/07/04 22:36:42;;;;;;;;;;;;;;;;;;;;;
2021/07/04 22:39:37;;;;;;;133.07;125.57;;;13.10;99.90;;;;;;6246737;23;20399;-85
2021/07/04 22:42:21;;;;;;;137.03;129.27;;;13.10;99.90;;;;;;6242541;23;20483;-85
2021/07/04 22:45:27;;;;;;;135.47;127.30;;;13.10;99.90;;;;;;6247072;23;20399;-85
2021/07/04 22:51:09;;;;;;;135.43;126.77;;;13.40;99.90;;;;;;6138130;23;20411;-85
2021/07/04 22:54:12;;;;;;;;;;;;;;;;;;;;;
2021/07/04 22:56:53;;;;;;;136.13;128.03;;;13.40;99.90;;;;;;6152543;23;20406;-85
2021/07/04 23:02:38;;;;;;;133.27;125.20;;;13.40;99.90;;;;;;6163563;23;20446;-85
2021/07/04 23:08:42;;;;;;;138.00;130.00;;;13.10;99.90;;;;;;6161747;23;20970;-86
2021/07/04 23:11:38;;;;;;;146.17;137.07;;;13.10;99.90;;;;;;6064955;23;20913;-85
2021/07/04 23:14:16;;;;;;;144.27;135.73;;;13.10;99.90;;;;;;6253079;23;20411;-85
2021/07/04 23:17:21;;;;;;;;;;;;;;;;;;;;;
2021/07/04 23:20:01;;;;;;;142.67;134.10;;;13.20;99.90;;;;;;6239581;23;20473;-85
2021/07/04 23:22:43;;;;;;;142.90;133.10;;;13.10;99.90;;;;;;6246886;23;20442;-85
2021/07/04 23:25:24;;;;;;;;;;;;;;;;;;;;;
2021/07/04 23:27:52;;;;;;;138.73;130.53;;;13.10;99.90;;;;;;6248660;23;20883;-85
2021/07/04 23:30:38;;;;;;;137.60;128.90;;;13.10;99.90;;;;;;6256917;23;20395;-85
2021/07/04 23:33:29;;;;;;;134.23;125.30;;;13.20;99.90;;;;;;6246888;23;20764;-85
2021/07/04 23:36:06;;;;;;;134.37;125.67;;;13.20;99.90;;;;;;6256882;23;21013;-85
2021/07/04 23:38:59;;;;;;;133.17;124.27;;;13.30;99.90;;;;;;6246835;23;20399;-85
2021/07/04 23:41:37;;;;;;;139.53;130.23;;;13.10;99.90;;;;;;6255606;23;20478;-85
2021/07/04 23:44:29;;;;;;;;;;;;;;;;;;;;;
2021/07/04 23:47:03;;;;;;;142.97;134.13;;;13.00;99.90;;;;;;6246156;23;20891;-85
2021/07/04 23:49:59;;;;;;;139.13;129.80;;;13.00;99.90;;;;;;6256974;23;20506;-85
2021/07/04 23:52:30;;;;;;;140.73;132.13;;;13.10;99.90;;;;;;6246432;23;20427;-85
2021/07/04 23:55:08;;;;;;;136.80;128.30;;;13.20;99.90;;;;;;6256974;23;20435;-85
2021/07/04 23:57:50;;;;;;;138.57;130.23;;;13.20;99.90;;;;;;6255080;23;20439;-85
